createdAt,value
2023-05-15T00:02:56.604Z,0.78
2023-05-15T00:08:19.093Z,0.82
2023-05-15T00:13:43.544Z,0.72
2023-05-15T00:19:26.030Z,0.91
2023-05-15T00:24:50.428Z,0.79
2023-05-15T00:30:15.722Z,0.88
2023-05-15T00:35:39.489Z,0.80
2023-05-15T00:41:02.856Z,0.65
2023-05-15T00:46:26.902Z,0.70
2023-05-15T00:52:02.090Z,0.80
2023-05-15T00:57:25.743Z,0.78
2023-05-15T01:02:50.468Z,0.66
2023-05-15T01:08:11.422Z,0.79
2023-05-15T01:13:35.887Z,0.87
2023-05-15T01:19:00.681Z,0.92
2023-05-15T01:24:25.233Z,0.84
2023-05-15T01:29:53.049Z,0.86
2023-05-15T01:35:17.763Z,0.87
2023-05-15T01:41:05.004Z,1.08
2023-05-15T01:46:31.241Z,0.79
2023-05-15T01:51:53.938Z,0.93
2023-05-15T01:57:19.321Z,1.12
2023-05-15T02:02:40.762Z,0.95
2023-05-15T02:08:01.345Z,1.03
2023-05-15T02:13:25.463Z,1.19
2023-05-15T02:18:49.804Z,1.03
2023-05-15T02:24:13.472Z,1.30
2023-05-15T02:29:36.999Z,1.13
2023-05-15T02:35:16.272Z,1.11
2023-05-15T02:40:38.439Z,1.12
2023-05-15T02:46:02.673Z,1.26
2023-05-15T02:51:24.228Z,1.11
2023-05-15T02:56:48.013Z,1.00
2023-05-15T03:02:11.977Z,1.00
2023-05-15T03:07:36.926Z,1.23
2023-05-15T03:12:57.921Z,1.06
2023-05-15T03:18:22.691Z,1.07
2023-05-15T03:24:25.751Z,1.20
2023-05-15T03:29:48.213Z,1.03
2023-05-15T03:35:12.327Z,1.12
2023-05-15T03:40:55.725Z,1.11
2023-05-15T03:46:17.075Z,1.03
2023-05-15T03:51:41.716Z,1.28
2023-05-15T03:57:06.640Z,1.08
2023-05-15T04:02:30.517Z,0.92
2023-05-15T04:07:51.656Z,1.28
2023-05-15T04:13:16.965Z,0.97
2023-05-15T04:18:40.605Z,1.06
2023-05-15T04:24:05.387Z,0.97
2023-05-15T04:29:24.339Z,1.00
2023-05-15T04:34:44.719Z,1.15
2023-05-15T04:40:09.789Z,1.10
2023-05-15T04:45:33.219Z,1.12
2023-05-15T04:50:58.001Z,1.15
2023-05-15T04:56:20.512Z,1.08
2023-05-15T05:01:45.319Z,0.98
2023-05-15T05:07:09.707Z,1.15
2023-05-15T05:12:33.519Z,1.06
2023-05-15T05:17:58.855Z,1.04
2023-05-15T05:23:21.141Z,1.01
2023-05-15T05:28:43.367Z,1.08
2023-05-15T05:34:02.304Z,1.17
2023-05-15T05:39:27.858Z,1.20
2023-05-15T05:44:46.133Z,1.15
2023-05-15T05:50:28.695Z,1.47
2023-05-15T05:55:47.457Z,1.26
2023-05-15T06:01:28.851Z,1.59
2023-05-15T06:06:51.896Z,1.28
2023-05-15T06:12:16.677Z,1.41
2023-05-15T06:17:38.996Z,1.21
2023-05-15T06:23:01.553Z,1.24
2023-05-15T06:28:24.094Z,1.39
2023-05-15T06:33:47.359Z,1.24
2023-05-15T06:39:11.176Z,1.36
2023-05-15T06:44:36.932Z,1.50
2023-05-15T06:50:02.416Z,1.44
2023-05-15T06:55:46.840Z,1.45
2023-05-15T07:01:11.081Z,1.38
2023-05-15T07:06:33.920Z,1.52
2023-05-15T07:11:59.258Z,1.68
2023-05-15T07:17:25.863Z,1.13
2023-05-15T07:22:55.752Z,1.53
2023-05-15T07:28:05.359Z,1.36
2023-05-15T07:33:55.182Z,1.63
2023-05-15T07:39:17.308Z,1.09
2023-05-15T07:44:44.639Z,1.42
2023-05-15T07:50:06.230Z,1.18
2023-05-15T07:55:31.802Z,1.18
2023-05-15T08:00:56.690Z,1.23
2023-05-15T08:06:21.888Z,1.03
2023-05-15T08:11:47.344Z,1.16
2023-05-15T08:17:12.588Z,1.06
2023-05-15T08:22:35.443Z,1.33
2023-05-15T08:27:59.866Z,1.19
2023-05-15T08:33:18.642Z,1.03
2023-05-15T08:38:43.996Z,1.46
2023-05-15T08:44:07.290Z,1.58
2023-05-15T08:49:29.477Z,1.45
2023-05-15T08:54:53.820Z,1.62
2023-05-15T09:00:34.375Z,2.53
2023-05-15T09:05:55.300Z,2.18
2023-05-15T09:11:18.917Z,2.17
2023-05-15T09:16:43.090Z,2.31
2023-05-15T09:22:07.525Z,2.34
2023-05-15T09:27:37.286Z,2.43
2023-05-15T09:33:05.376Z,2.90
2023-05-15T09:38:49.468Z,3.25
2023-05-15T09:44:15.161Z,3.13
2023-05-15T09:49:34.746Z,3.82
2023-05-15T09:54:59.348Z,3.47
2023-05-15T10:00:27.043Z,3.59
2023-05-15T10:05:51.590Z,3.07
2023-05-15T10:11:15.619Z,2.89
2023-05-15T10:16:38.613Z,2.93
2023-05-15T10:22:03.155Z,2.68
2023-05-15T10:27:23.500Z,2.15
2023-05-15T10:33:01.623Z,3.00
2023-05-15T10:38:19.182Z,2.74
2023-05-15T10:43:38.109Z,2.48
2023-05-15T10:48:55.919Z,2.90
2023-05-15T10:54:14.041Z,2.66
2023-05-15T10:59:32.337Z,2.60
2023-05-15T11:04:50.965Z,2.80
2023-05-15T11:10:24.332Z,2.60
2023-05-15T11:15:56.484Z,2.56
2023-05-15T11:21:14.949Z,2.38
2023-05-15T11:26:38.126Z,2.59
2023-05-15T11:32:03.495Z,3.18
2023-05-15T11:37:40.985Z,2.97
2023-05-15T11:43:04.839Z,4.73
2023-05-15T11:48:32.574Z,3.36
2023-05-15T11:53:56.824Z,3.50
2023-05-15T11:59:22.371Z,4.05
2023-05-15T12:04:46.604Z,3.94
2023-05-15T12:10:11.268Z,4.18
2023-05-15T12:15:36.494Z,3.90
2023-05-15T12:20:59.958Z,3.32
2023-05-15T12:26:24.188Z,3.00
2023-05-15T12:31:47.648Z,2.93
2023-05-15T12:37:34.539Z,3.66
2023-05-15T12:42:58.412Z,3.32
2023-05-15T12:48:19.734Z,2.42
2023-05-15T12:53:44.382Z,2.11
2023-05-15T12:59:09.672Z,2.66
2023-05-15T13:04:31.769Z,3.06
2023-05-15T13:09:51.369Z,3.03
2023-05-15T13:15:25.926Z,3.52
2023-05-15T13:20:49.719Z,3.02
2023-05-15T13:26:08.040Z,2.89
2023-05-15T13:31:33.944Z,2.91
2023-05-15T13:36:59.392Z,2.80
2023-05-15T13:42:19.292Z,2.57
2023-05-15T13:47:43.942Z,2.64
2023-05-15T13:53:08.194Z,2.59
2023-05-15T13:58:31.793Z,2.75
2023-05-15T14:03:55.152Z,2.35
2023-05-15T14:09:13.931Z,2.05
2023-05-15T14:14:39.255Z,2.56
2023-05-15T14:19:59.756Z,2.10
2023-05-15T14:25:25.108Z,2.22
2023-05-15T14:30:49.081Z,2.30
2023-05-15T14:36:37.885Z,3.08
2023-05-15T14:42:02.032Z,2.62
2023-05-15T14:47:39.080Z,2.66
2023-05-15T14:53:00.229Z,2.36
2023-05-15T14:58:21.727Z,2.53
2023-05-15T15:03:46.889Z,2.03
2023-05-15T15:09:12.754Z,2.07
2023-05-15T15:14:39.142Z,2.50
2023-05-15T15:19:59.579Z,1.91
2023-05-15T15:25:26.318Z,2.03
2023-05-15T15:30:51.495Z,2.01
2023-05-15T15:36:12.938Z,1.83
2023-05-15T15:41:36.088Z,1.90
2023-05-15T15:46:55.375Z,1.87
2023-05-15T15:52:19.684Z,1.83
2023-05-15T15:57:42.200Z,1.75
2023-05-15T16:03:06.334Z,1.70
2023-05-15T16:08:26.557Z,1.58
2023-05-15T16:13:49.994Z,1.41
2023-05-15T16:19:13.637Z,1.58
2023-05-15T16:24:32.225Z,1.41
2023-05-15T16:29:50.875Z,1.46
2023-05-15T16:35:14.814Z,1.45
2023-05-15T16:40:37.690Z,1.44
2023-05-15T16:46:25.524Z,1.64
2023-05-15T16:51:45.824Z,1.39
2023-05-15T16:57:07.387Z,1.07
2023-05-15T17:02:29.689Z,1.40
2023-05-15T17:08:28.036Z,1.55
2023-05-15T17:13:51.981Z,1.25
2023-05-15T17:19:16.263Z,1.22
2023-05-15T17:24:50.846Z,1.47
2023-05-15T17:30:08.253Z,1.29
2023-05-15T17:35:34.257Z,1.29
2023-05-15T17:40:56.149Z,1.35
2023-05-15T17:46:20.525Z,1.41
2023-05-15T17:51:45.160Z,1.38
2023-05-15T17:57:09.824Z,1.49
2023-05-15T18:02:30.896Z,1.43
2023-05-15T18:07:50.883Z,1.41
2023-05-15T18:13:13.805Z,1.42
2023-05-15T18:18:39.172Z,1.48
2023-05-15T18:24:02.911Z,1.51
2023-05-15T18:29:27.710Z,1.80
2023-05-15T18:35:27.234Z,1.78
2023-05-15T18:40:47.403Z,1.39
2023-05-15T18:51:31.894Z,1.45
2023-05-15T18:56:55.271Z,1.83
2023-05-15T19:02:17.950Z,1.37
2023-05-15T19:07:42.684Z,1.59
2023-05-15T19:13:07.193Z,1.63
2023-05-15T19:18:32.144Z,1.62
2023-05-15T19:23:54.782Z,1.86
2023-05-15T19:29:16.583Z,1.36
2023-05-15T19:34:41.672Z,1.79
2023-05-15T19:40:07.041Z,1.68
2023-05-15T19:45:33.301Z,1.49
2023-05-15T19:50:53.612Z,2.08
2023-05-15T19:56:11.869Z,1.44
2023-05-15T20:01:32.779Z,1.68
2023-05-15T20:06:57.652Z,1.69
2023-05-15T20:12:24.175Z,1.70
2023-05-15T20:17:49.579Z,1.98
2023-05-15T20:23:15.369Z,1.84
2023-05-15T20:28:39.154Z,1.69
2023-05-15T20:34:02.405Z,1.66
2023-05-15T20:39:27.422Z,1.87
2023-05-15T20:44:51.449Z,1.62
2023-05-15T20:50:13.828Z,1.86
2023-05-15T20:55:34.586Z,1.93
2023-05-15T21:01:00.881Z,2.00
2023-05-15T21:06:22.698Z,1.52
2023-05-15T21:11:47.732Z,1.60
2023-05-15T21:17:13.464Z,2.19
2023-05-15T21:22:36.794Z,1.64
2023-05-15T21:27:58.831Z,2.01
2023-05-15T21:33:21.365Z,1.86
2023-05-15T21:38:45.272Z,1.94
2023-05-15T21:44:04.486Z,2.35
2023-05-15T21:49:27.428Z,2.76
2023-05-15T21:54:52.492Z,3.07
2023-05-15T22:00:17.046Z,3.51
2023-05-15T22:05:41.112Z,3.43
2023-05-15T22:11:02.718Z,3.84
2023-05-15T22:16:26.835Z,3.39
2023-05-15T22:21:50.539Z,4.07
2023-05-15T22:27:39.320Z,4.59
2023-05-15T22:33:19.236Z,4.15
2023-05-15T22:38:44.997Z,4.06
2023-05-15T22:44:03.157Z,4.29
2023-05-15T22:49:27.692Z,3.95
2023-05-15T22:54:49.700Z,3.30
2023-05-15T23:00:09.106Z,4.01
2023-05-15T23:05:33.099Z,4.22
2023-05-15T23:10:57.258Z,4.46
2023-05-15T23:16:22.176Z,4.37
2023-05-15T23:21:45.181Z,4.30
2023-05-15T23:27:09.696Z,4.49
2023-05-15T23:32:33.412Z,4.47
2023-05-15T23:37:56.695Z,3.99
2023-05-15T23:43:19.947Z,4.90
2023-05-15T23:48:44.593Z,4.80
2023-05-15T23:54:10.110Z,4.87
2023-05-15T23:59:34.793Z,4.53
